Time;durP1;ratioP1;P1;durP2;ratioP2;P2;SDS_P1;SDS_P2;PMS_P1;PMS_P2;Temp;Humidity;BMP_temperature;BMP_pressure;BME280_temperature;BME280_humidity;BME280_pressure;Samples;Min_cycle;Max_cycle;Signal;HPM_P1;HPM_P2
2023/11/08 00:01:50;;;;;;;0.67;0.60;;;;;;;6.55;100.00;97690.38;6215714;28;20202;-49
2023/11/08 00:04:52;;;;;;;0.73;0.50;;;;;;;6.56;100.00;97684.03;6218039;28;20199;-48
2023/11/08 00:07:54;;;;;;;3.57;0.73;;;;;;;6.55;100.00;97684.25;6218078;28;20200;-49
2023/11/08 00:10:56;;;;;;;2.97;0.60;;;;;;;6.54;100.00;97680.78;6214574;28;20235;-47
2023/11/08 00:13:58;;;;;;;1.27;0.73;;;;;;;6.73;100.00;97679.00;6217632;28;20203;-49
2023/11/08 00:17:01;;;;;;;1.83;0.77;;;;;;;6.83;100.00;97694.41;6217810;28;20454;-50
2023/11/08 00:20:09;;;;;;;0.60;0.60;;;;;;;6.87;100.00;97699.03;6218283;28;20261;-50
2023/11/08 00:23:11;;;;;;;0.60;0.60;;;;;;;6.72;100.00;97704.66;6217818;28;20686;-49
2023/11/08 00:26:13;;;;;;;1.67;1.00;;;;;;;6.78;100.00;97704.84;6221471;28;20314;-48
2023/11/08 00:29:22;;;;;;;1.57;0.80;;;;;;;6.73;100.00;97694.88;6222354;28;20559;-51
2023/11/08 00:32:25;;;;;;;1.30;1.07;;;;;;;6.97;100.00;97707.31;6224682;28;20191;-48
2023/11/08 00:35:27;;;;;;;1.07;0.90;;;;;;;6.90;100.00;97695.16;6218197;28;20224;-50
2023/11/08 00:38:29;;;;;;;1.40;1.30;;;;;;;6.90;100.00;97701.28;6222920;28;20203;-50
2023/11/08 00:41:32;;;;;;;3.57;1.77;;;;;;;7.21;100.00;97720.75;6222611;28;20185;-49
2023/11/08 00:44:34;;;;;;;1.50;1.40;;;;;;;7.06;100.00;97714.97;6221153;28;20215;-49
2023/11/08 00:47:37;;;;;;;1.43;1.10;;;;;;;7.06;100.00;97728.22;6222344;28;20204;-47
2023/11/08 00:50:40;;;;;;;1.37;1.17;;;;;;;7.08;100.00;97736.75;6224171;28;20203;-49
2023/11/08 00:53:42;;;;;;;1.50;1.40;;;;;;;7.27;100.00;97724.34;6222873;28;20284;-49
2023/11/08 00:56:44;;;;;;;1.50;1.40;;;;;;;7.11;100.00;97738.97;6222472;28;20316;-49
2023/11/08 00:59:46;;;;;;;1.87;1.77;;;;;;;6.94;100.00;97744.00;6217106;28;20859;-50
2023/11/08 01:02:48;;;;;;;2.40;1.67;;;;;;;6.86;100.00;97744.28;6222425;28;20190;-47
2023/11/08 01:05:51;;;;;;;2.07;1.97;;;;;;;6.84;100.00;97738.38;6223258;28;20727;-50
2023/11/08 01:08:53;;;;;;;1.90;1.70;;;;;;;6.83;100.00;97740.22;6222142;28;20200;-48
2023/11/08 01:11:55;;;;;;;4.30;1.80;;;;;;;6.72;100.00;97735.63;6221706;28;20195;-51
2023/11/08 01:14:57;;;;;;;2.10;2.00;;;;;;;6.62;100.00;97737.94;6221649;28;20648;-50
2023/11/08 01:18:00;;;;;;;5.63;3.00;;;;;;;6.61;100.00;97742.44;6219944;28;20798;-50
2023/11/08 01:21:03;;;;;;;2.47;2.27;;;;;;;6.61;100.00;97736.34;6221245;28;20196;-46
2023/11/08 01:24:05;;;;;;;3.60;3.07;;;;;;;6.81;100.00;97744.94;6221584;28;20745;-50
2023/11/08 01:27:08;;;;;;;3.13;2.93;;;;;;;6.93;100.00;97734.44;6218860;28;20198;-47
2023/11/08 01:30:12;;;;;;;3.07;2.77;;;;;;;6.84;100.00;97733.88;6221495;28;20243;-49
2023/11/08 01:33:14;;;;;;;3.50;3.10;;;;;;;6.76;100.00;97742.13;6219568;28;20188;-48
2023/11/08 01:36:16;;;;;;;3.83;3.53;;;;;;;7.08;100.00;97734.91;6219126;28;20307;-49
2023/11/08 01:39:18;;;;;;;3.53;3.23;;;;;;;7.18;100.00;97739.72;6221805;28;20201;-50
2023/11/08 01:42:21;;;;;;;4.40;4.00;;;;;;;7.17;100.00;97724.84;6223120;28;20258;-50
2023/11/08 01:45:23;;;;;;;4.97;4.40;;;;;;;7.34;100.00;97727.72;6220397;28;20200;-50
2023/11/08 01:48:25;;;;;;;4.40;4.00;;;;;;;7.15;100.00;97727.72;6219881;28;20207;-47
2023/11/08 01:51:27;;;;;;;4.77;4.30;;;;;;;7.16;100.00;97713.44;6220801;28;20723;-47
2023/11/08 01:54:30;;;;;;;5.70;4.77;;;;;;;7.27;100.00;97716.41;6221290;28;20218;-50
2023/11/08 01:57:33;;;;;;;5.60;5.10;;;;;;;7.21;100.00;97715.44;6221447;28;20215;-47
2023/11/08 02:00:37;;;;;;;5.00;4.60;;;;;;;7.02;100.00;97703.19;6219476;28;20212;-50
2023/11/08 02:03:41;;;;;;;5.20;4.70;;;;;;;6.98;100.00;97716.88;6219553;28;20338;-49
2023/11/08 02:06:43;;;;;;;6.10;5.60;;;;;;;6.90;100.00;97719.81;6220588;28;20189;-48
2023/11/08 02:09:46;;;;;;;6.20;5.60;;;;;;;6.93;100.00;97724.66;6219596;28;20691;-50
2023/11/08 02:12:50;;;;;;;5.40;4.90;;;;;;;6.94;100.00;97725.47;6219962;28;20200;-51
2023/11/08 02:15:53;;;;;;;4.63;4.10;;;;;;;6.91;100.00;97739.97;6220147;28;20221;-49
2023/11/08 02:18:56;;;;;;;5.03;4.57;;;;;;;6.86;100.00;97737.16;6220232;28;20686;-50
2023/11/08 02:21:59;;;;;;;4.97;3.93;;;;;;;6.84;100.00;97743.69;6220347;28;20896;-49
2023/11/08 02:25:01;;;;;;;4.60;4.20;;;;;;;6.83;100.00;97747.34;6218978;28;20285;-50
2023/11/08 02:28:03;;;;;;;4.00;3.70;;;;;;;6.82;100.00;97748.38;6217768;28;20243;-48
2023/11/08 02:31:06;;;;;;;3.50;3.20;;;;;;;6.91;100.00;97750.56;6220041;28;20235;-50
2023/11/08 02:34:09;;;;;;;3.30;3.10;;;;;;;6.94;100.00;97736.84;6219758;28;20257;-48
2023/11/08 02:37:11;;;;;;;3.13;2.83;;;;;;;6.90;100.00;97754.22;6216852;28;20633;-48
2023/11/08 02:40:14;;;;;;;3.60;3.30;;;;;;;6.90;100.00;97761.38;6219250;28;20204;-49
2023/11/08 02:43:16;;;;;;;4.07;3.67;;;;;;;6.81;100.00;97760.81;6212980;28;20225;-48
2023/11/08 02:46:18;;;;;;;3.13;2.90;;;;;;;6.88;100.00;97752.81;6218923;28;20534;-47
2023/11/08 02:49:21;;;;;;;3.60;3.30;;;;;;;6.88;100.00;97760.75;6217496;28;20192;-48
2023/11/08 02:52:23;;;;;;;3.67;3.37;;;;;;;7.21;100.00;97773.72;6219293;28;20245;-50
2023/11/08 02:55:28;;;;;;;4.23;3.50;;;;;;;7.18;100.00;97763.56;6219845;28;20204;-49
2023/11/08 02:58:30;;;;;;;4.43;3.13;;;;;;;7.06;100.00;97767.97;6207175;28;20781;-49
2023/11/08 03:01:32;;;;;;;3.17;2.97;;;;;;;7.00;100.00;97768.81;6219456;28;20358;-49
2023/11/08 03:04:34;;;;;;;3.70;3.40;;;;;;;6.96;100.00;97766.59;6215771;28;20231;-50
2023/11/08 03:07:37;;;;;;;3.30;2.50;;;;;;;6.81;100.00;97763.47;6220001;28;20195;-48
2023/11/08 03:10:41;;;;;;;2.97;2.77;;;;;;;7.08;100.00;97766.69;6217279;28;20524;-49
2023/11/08 03:13:43;;;;;;;2.77;2.57;;;;;;;7.18;100.00;97764.38;6216487;28;20212;-48
2023/11/08 03:16:45;;;;;;;3.30;2.50;;;;;;;6.95;100.00;97767.63;6233807;28;20650;-51
2023/11/08 03:19:47;;;;;;;2.47;2.27;;;;;;;6.82;100.00;97785.47;6218892;28;20336;-51
2023/11/08 03:22:49;;;;;;;5.70;2.70;;;;;;;6.81;100.00;97766.13;6218943;28;20588;-50
2023/11/08 03:25:51;;;;;;;3.30;3.00;;;;;;;6.55;100.00;97759.19;6219777;28;20202;-48
2023/11/08 03:28:54;;;;;;;2.83;2.50;;;;;;;6.67;100.00;97799.81;6217355;28;20623;-48
2023/11/08 03:31:57;;;;;;;3.67;2.53;;;;;;;6.66;100.00;97810.63;6218839;28;20252;-51
2023/11/08 03:35:00;;;;;;;3.23;2.93;;;;;;;6.65;100.00;97809.81;6218793;28;20207;-53
2023/11/08 03:38:02;;;;;;;3.00;2.80;;;;;;;6.81;100.00;97803.19;6216022;28;20223;-52
2023/11/08 03:41:05;;;;;;;3.30;3.00;;;;;;;7.30;96.59;97817.47;6218695;28;20204;-50
2023/11/08 03:44:07;;;;;;;2.83;2.10;;;;;;;6.84;99.52;97797.44;6218613;28;20568;-53
2023/11/08 03:47:10;;;;;;;3.10;2.53;;;;;;;6.95;99.71;97825.91;6217793;28;20208;-50
2023/11/08 03:50:12;;;;;;;4.00;2.33;;;;;;;6.86;100.00;97836.97;6218525;28;20223;-52
2023/11/08 03:53:14;;;;;;;3.10;2.20;;;;;;;6.86;98.85;97832.47;6218479;28;20198;-48
2023/11/08 03:56:17;;;;;;;4.17;2.13;;;;;;;6.81;100.00;97848.19;6218324;28;20208;-49
2023/11/08 03:59:19;;;;;;;1.97;1.83;;;;;;;6.72;100.00;97857.41;6218192;28;20553;-49
2023/11/08 04:02:21;;;;;;;4.27;1.70;;;;;;;6.43;100.00;97813.78;6217823;28;20572;-51
2023/11/08 04:05:23;;;;;;;2.13;1.60;;;;;;;6.60;100.00;97845.84;6217980;28;20683;-49
2023/11/08 04:08:26;;;;;;;2.33;1.50;;;;;;;6.66;100.00;97853.78;6218229;28;20536;-48
2023/11/08 04:11:28;;;;;;;2.07;1.53;;;;;;;6.56;100.00;97856.06;6214797;28;20206;-48
2023/11/08 04:14:30;;;;;;;1.73;1.63;;;;;;;6.58;100.00;97845.28;6218318;28;20188;-49
2023/11/08 04:17:32;;;;;;;2.40;1.57;;;;;;;6.42;100.00;97852.69;6217742;28;20232;-48
2023/11/08 04:20:34;;;;;;;1.70;1.60;;;;;;;6.37;100.00;97854.34;6216485;28;20195;-49
2023/11/08 04:23:36;;;;;;;1.47;1.23;;;;;;;6.50;100.00;97854.25;6217958;28;20214;-51
2023/11/08 04:26:38;;;;;;;1.90;0.97;;;;;;;6.39;100.00;97858.38;6216467;28;20214;-50
2023/11/08 04:29:41;;;;;;;4.17;1.40;;;;;;;6.02;100.00;97822.13;6217769;28;20604;-47
2023/11/08 04:32:44;;;;;;;1.53;0.87;;;;;;;6.22;100.00;97857.25;6217893;28;20282;-48
2023/11/08 04:35:46;;;;;;;0.90;0.90;;;;;;;6.51;98.59;97858.56;6218046;28;20302;-49
2023/11/08 04:38:48;;;;;;;1.10;1.00;;;;;;;6.41;100.00;97858.19;6217957;28;20566;-49
2023/11/08 04:41:51;;;;;;;1.60;1.03;;;;;;;6.25;98.67;97830.34;6217610;28;20204;-50
2023/11/08 04:44:53;;;;;;;2.60;0.90;;;;;;;6.27;100.00;97867.19;6217925;28;20203;-50
2023/11/08 04:47:56;;;;;;;1.27;0.90;;;;;;;6.07;100.00;97880.50;6216609;28;20196;-49
2023/11/08 04:50:58;;;;;;;1.97;1.33;;;;;;;6.25;100.00;97883.25;6215736;28;20204;-47
2023/11/08 04:54:00;;;;;;;1.00;0.90;;;;;;;6.22;100.00;97878.41;6217361;28;20289;-49
2023/11/08 04:57:03;;;;;;;1.77;1.10;;;;;;;6.39;100.00;97887.47;6216657;28;20556;-48
2023/11/08 05:00:05;;;;;;;1.40;1.20;;;;;;;6.69;96.23;97885.09;6217804;28;20191;-50
2023/11/08 05:03:07;;;;;;;1.37;1.20;;;;;;;6.73;95.34;97896.09;6213686;28;20203;-49
2023/11/08 05:06:10;;;;;;;2.00;1.20;;;;;;;6.58;100.00;97882.31;6216790;28;20195;-47
2023/11/08 05:09:15;;;;;;;1.90;0.80;;;;;;;6.40;100.00;97891.78;6232974;28;20602;-49
2023/11/08 05:12:19;;;;;;;2.47;1.23;;;;;;;6.35;100.00;97907.44;6220773;28;20198;-50
2023/11/08 05:15:23;;;;;;;1.87;0.83;;;;;;;6.22;100.00;97902.22;6222170;28;20210;-47
2023/11/08 05:18:26;;;;;;;1.93;1.07;;;;;;;6.12;100.00;97907.94;6220913;28;20293;-50
2023/11/08 05:21:28;;;;;;;2.93;1.07;;;;;;;5.94;100.00;97903.28;6220341;28;20561;-48
2023/11/08 05:24:30;;;;;;;1.60;1.17;;;;;;;5.94;100.00;97905.94;6219915;28;20199;-46
2023/11/08 05:27:33;;;;;;;1.20;1.10;;;;;;;5.85;100.00;97912.41;6220081;28;20591;-49
2023/11/08 05:30:35;;;;;;;7.60;1.17;;;;;;;5.81;100.00;97920.97;6220018;28;20864;-48
2023/11/08 05:33:40;;;;;;;1.57;0.87;;;;;;;5.97;100.00;97911.84;6221019;28;20207;-48
2023/11/08 05:36:42;;;;;;;1.20;1.10;;;;;;;6.10;100.00;97920.53;6220872;28;20895;-48
2023/11/08 05:39:45;;;;;;;2.40;1.00;;;;;;;6.35;100.00;97918.03;6220128;28;20250;-51
2023/11/08 05:42:47;;;;;;;2.37;0.80;;;;;;;6.17;100.00;97923.19;6222071;28;20222;-50
2023/11/08 05:45:49;;;;;;;1.07;0.80;;;;;;;6.02;100.00;97935.84;6221029;28;20200;-48
2023/11/08 05:48:52;;;;;;;2.93;0.80;;;;;;;5.92;100.00;97933.63;6220950;28;20227;-48
2023/11/08 05:51:54;;;;;;;1.43;1.00;;;;;;;5.86;100.00;97943.16;6221015;28;20192;-47
2023/11/08 05:54:56;;;;;;;0.90;0.87;;;;;;;5.84;100.00;97947.00;6220155;28;20206;-49
2023/11/08 05:57:59;;;;;;;1.80;0.83;;;;;;;5.81;100.00;97945.59;6220845;28;20690;-50
2023/11/08 06:01:07;;;;;;;1.73;0.80;;;;;;;5.64;100.00;97947.00;6220878;28;20715;-51
2023/11/08 06:04:09;;;;;;;1.03;0.80;;;;;;;5.53;100.00;97961.66;6220563;28;20699;-48
2023/11/08 06:07:11;;;;;;;2.40;0.80;;;;;;;5.70;100.00;97968.16;6218531;28;20186;-50
2023/11/08 06:10:14;;;;;;;1.40;1.23;;;;;;;5.87;99.09;97930.75;6220346;28;20200;-49
2023/11/08 06:13:16;;;;;;;3.40;0.80;;;;;;;6.33;96.99;97965.06;6220112;28;20536;-51
2023/11/08 06:16:18;;;;;;;2.33;0.83;;;;;;;6.14;100.00;97969.38;6220710;28;20245;-48
2023/11/08 06:19:20;;;;;;;3.37;0.90;;;;;;;6.04;100.00;97965.53;6217886;28;20206;-48
2023/11/08 06:22:26;;;;;;;1.53;0.90;;;;;;;6.11;100.00;97961.06;6218768;28;20253;-48
2023/11/08 06:25:29;;;;;;;1.13;0.80;;;;;;;5.91;100.00;97951.31;6217895;28;20588;-50
2023/11/08 06:28:31;;;;;;;2.50;0.90;;;;;;;5.91;100.00;97961.00;6218674;28;20211;-48
2023/11/08 06:31:36;;;;;;;2.33;0.80;;;;;;;5.90;100.00;97968.13;6199647;28;20330;-47
2023/11/08 06:34:40;;;;;;;2.00;0.90;;;;;;;5.79;100.00;97979.34;6199377;28;20316;-51
2023/11/08 06:37:43;;;;;;;1.40;0.90;;;;;;;5.54;100.00;97949.25;6196978;28;20344;-50
2023/11/08 06:40:45;;;;;;;1.57;0.70;;;;;;;5.60;100.00;97986.25;6180089;28;20224;-48
2023/11/08 06:43:48;;;;;;;3.70;0.80;;;;;;;5.53;100.00;97968.78;6208021;28;20207;-46
2023/11/08 06:46:51;;;;;;;3.10;0.80;;;;;;;5.67;100.00;97996.84;6199871;28;20716;-50
2023/11/08 06:49:53;;;;;;;2.33;0.80;;;;;;;5.54;100.00;97996.81;6196556;28;20204;-50
2023/11/08 06:52:55;;;;;;;1.63;0.60;;;;;;;5.45;100.00;98001.47;6201205;28;20204;-47
2023/11/08 06:55:58;;;;;;;3.00;1.00;;;;;;;5.46;100.00;98018.94;6183885;28;20641;-50
2023/11/08 06:59:00;;;;;;;1.57;0.60;;;;;;;5.47;100.00;98031.16;6180860;28;20286;-47
2023/11/08 07:02:03;;;;;;;1.87;0.70;;;;;;;5.44;100.00;98021.78;6197206;28;20612;-50
2023/11/08 07:05:05;;;;;;;1.37;0.70;;;;;;;5.43;100.00;98027.28;6196572;28;20626;-51
2023/11/08 07:08:07;;;;;;;2.00;0.70;;;;;;;5.37;100.00;98036.03;6197893;28;20288;-48
2023/11/08 07:11:10;;;;;;;2.40;0.60;;;;;;;5.58;100.00;98029.75;6198551;28;20195;-48
2023/11/08 07:14:12;;;;;;;2.03;0.73;;;;;;;5.75;100.00;98038.09;6198526;28;20203;-50
2023/11/08 07:17:15;;;;;;;3.77;0.67;;;;;;;5.72;100.00;98036.69;6197147;28;20213;-47
2023/11/08 07:20:17;;;;;;;1.30;0.70;;;;;;;5.99;97.92;98036.72;6197620;28;20192;-50
2023/11/08 07:23:19;;;;;;;2.77;0.70;;;;;;;5.92;100.00;98029.59;6196793;28;20539;-49
2023/11/08 07:26:21;;;;;;;3.00;0.70;;;;;;;5.83;100.00;98040.56;6194672;28;20655;-48
2023/11/08 07:29:23;;;;;;;1.37;0.60;;;;;;;5.95;100.00;98034.47;6197423;28;20786;-50
2023/11/08 07:32:25;;;;;;;1.00;0.50;;;;;;;6.04;100.00;98034.28;6194175;28;20546;-50
2023/11/08 07:35:27;;;;;;;2.57;0.90;;;;;;;6.29;94.77;98052.97;6193617;28;20195;-49
2023/11/08 07:38:29;;;;;;;2.33;0.90;;;;;;;6.30;98.13;98042.19;6196652;28;20218;-48
2023/11/08 07:41:32;;;;;;;3.23;0.70;;;;;;;6.27;99.09;98039.97;6195518;28;20203;-50
2023/11/08 07:44:36;;;;;;;1.50;1.00;;;;;;;6.24;95.97;98040.38;6197444;28;20203;-50
2023/11/08 07:47:38;;;;;;;3.07;0.57;;;;;;;6.31;96.25;98045.69;6196558;28;20642;-52
2023/11/08 07:50:40;;;;;;;2.50;0.80;;;;;;;6.28;97.50;98040.78;6193932;28;20196;-50
2023/11/08 07:53:42;;;;;;;4.03;0.80;;;;;;;6.40;94.48;98037.31;6196332;28;20639;-49
2023/11/08 07:56:45;;;;;;;2.40;0.70;;;;;;;6.49;93.72;98035.25;6193168;28;20205;-49
2023/11/08 07:59:49;;;;;;;1.60;0.60;;;;;;;6.52;90.24;98032.19;6192600;28;20213;-51
2023/11/08 08:02:51;;;;;;;0.90;0.60;;;;;;;6.64;90.57;98042.94;6202798;28;20204;-49
2023/11/08 08:05:55;;;;;;;1.90;0.73;;;;;;;6.70;88.95;98029.72;6196076;28;20285;-49
2023/11/08 08:08:58;;;;;;;1.97;0.77;;;;;;;6.90;86.01;98024.34;6193672;28;20920;-47
2023/11/08 08:12:00;;;;;;;3.53;0.70;;;;;;;6.85;94.32;98026.00;6199275;28;20204;-47
2023/11/08 08:15:04;;;;;;;2.10;0.73;;;;;;;6.98;85.49;98016.16;6191509;28;20223;-50
2023/11/08 08:18:06;;;;;;;2.30;0.60;;;;;;;7.06;86.08;98012.47;6189403;28;20713;-48
2023/11/08 08:21:08;;;;;;;1.07;0.40;;;;;;;7.22;82.97;98013.81;6195800;28;20676;-48
2023/11/08 08:24:11;;;;;;;2.20;0.80;;;;;;;7.30;84.39;98008.28;6195354;28;20200;-50
2023/11/08 08:27:13;;;;;;;3.17;0.50;;;;;;;7.28;86.58;98007.66;6193637;28;20205;-50
2023/11/08 08:30:15;;;;;;;1.33;0.60;;;;;;;7.18;84.70;97988.75;6195247;28;20235;-48
2023/11/08 08:33:17;;;;;;;2.30;0.67;;;;;;;7.42;83.66;98017.16;6192225;28;20203;-49
2023/11/08 08:36:19;;;;;;;0.83;0.70;;;;;;;7.51;83.53;98012.41;6199454;28;20198;-47
2023/11/08 08:39:24;;;;;;;2.00;0.60;;;;;;;7.72;76.19;98008.59;6192777;28;20620;-48
2023/11/08 08:42:26;;;;;;;2.43;0.90;;;;;;;7.84;76.86;98020.16;6191333;28;20196;-50
2023/11/08 08:45:29;;;;;;;2.13;0.70;;;;;;;7.97;74.01;98024.53;6199591;28;20194;-55
2023/11/08 08:48:32;;;;;;;0.70;0.40;;;;;;;8.01;72.21;97981.44;6198560;28;20196;-48
2023/11/08 08:51:34;;;;;;;4.40;0.80;;;;;;;8.14;72.56;98014.19;6197293;28;20286;-48
2023/11/08 08:54:36;;;;;;;1.43;0.60;;;;;;;8.15;75.92;98013.97;6199508;28;20549;-49
2023/11/08 08:57:41;;;;;;;2.63;0.73;;;;;;;8.18;75.64;98002.94;6198375;28;20205;-48
2023/11/08 09:00:43;;;;;;;0.73;0.40;;;;;;;8.25;72.95;97977.13;6200327;28;20216;-47
2023/11/08 09:03:45;;;;;;;0.90;0.60;;;;;;;8.69;67.87;98014.28;6198244;28;20205;-49
2023/11/08 09:06:48;;;;;;;1.03;0.50;;;;;;;8.73;69.57;98021.59;6179266;28;20726;-48
2023/11/08 09:09:51;;;;;;;1.00;0.40;;;;;;;8.69;70.49;97975.25;6202900;28;20229;-51
2023/11/08 09:12:53;;;;;;;0.93;0.50;;;;;;;8.98;67.82;98015.38;6202377;28;20541;-50
2023/11/08 09:16:16;;;;;;;2.10;0.60;;;;;;;8.91;65.87;97983.56;6192366;28;20232;-48
2023/11/08 09:19:20;;;;;;;2.73;0.63;;;;;;;9.23;68.80;98017.94;6203241;28;20288;-50
2023/11/08 09:22:23;;;;;;;1.60;0.60;;;;;;;9.45;69.37;98018.25;6185198;28;20200;-47
2023/11/08 09:25:25;;;;;;;1.20;0.50;;;;;;;9.55;68.24;98021.16;6176352;28;20201;-50
2023/11/08 09:28:27;;;;;;;1.07;0.63;;;;;;;9.91;59.85;98014.91;6200459;28;20205;-50
2023/11/08 09:31:29;;;;;;;1.03;0.50;;;;;;;10.09;57.63;98004.16;6182775;28;20230;-51
2023/11/08 09:34:32;;;;;;;1.33;0.67;;;;;;;10.15;62.20;97998.94;6194774;28;20198;-50
2023/11/08 09:37:36;;;;;;;2.00;0.50;;;;;;;10.23;56.49;97990.63;6197879;28;20746;-48
2023/11/08 09:40:38;;;;;;;0.97;0.50;;;;;;;10.26;61.32;98004.31;6197264;28;20200;-48
2023/11/08 09:43:41;;;;;;;1.60;0.50;;;;;;;10.07;65.35;97998.25;6197368;28;20200;-49
2023/11/08 09:46:44;;;;;;;2.37;0.80;;;;;;;10.14;59.07;98003.47;6196518;28;20728;-51
2023/11/08 09:49:51;;;;;;;0.77;0.40;;;;;;;10.30;57.04;97994.84;6195948;28;20761;-52
2023/11/08 09:52:55;;;;;;;2.07;0.67;;;;;;;10.39;58.92;97989.94;6194347;28;20211;-50
2023/11/08 09:55:59;;;;;;;2.00;0.40;;;;;;;10.46;56.65;97998.63;6197001;28;20349;-49
2023/11/08 09:59:02;;;;;;;1.70;0.40;;;;;;;10.40;57.41;97999.56;6195583;28;20209;-52
2023/11/08 10:02:08;;;;;;;1.23;0.50;;;;;;;10.21;56.94;97977.53;6195838;28;20295;-53
2023/11/08 10:05:10;;;;;;;3.40;0.67;;;;;;;10.43;64.07;98001.75;6195265;28;20564;-51
2023/11/08 10:08:13;;;;;;;1.00;0.60;;;;;;;10.33;63.90;97991.69;6179998;28;20208;-49
2023/11/08 10:11:18;;;;;;;1.33;0.60;;;;;;;10.31;64.79;97988.47;6194284;28;20215;-51
2023/11/08 10:14:34;;;;;;;0.93;0.57;;;;;;;10.44;63.55;97982.09;6196516;28;20205;-48
2023/11/08 10:17:38;;;;;;;0.93;0.40;;;;;;;10.48;63.20;97987.75;6195164;28;20568;-51
2023/11/08 10:21:19;;;;;;;1.97;0.70;;;;;;;10.56;55.73;97987.41;6196440;28;20197;-49
2023/11/08 10:24:28;;;;;;;2.50;0.70;;;;;;;10.76;56.97;97987.00;6196095;28;20207;-50
2023/11/08 10:27:32;;;;;;;1.73;0.60;;;;;;;10.71;54.65;98001.03;6193142;28;21043;-50
2023/11/08 10:30:38;;;;;;;1.53;0.80;;;;;;;10.89;53.48;98001.94;6201650;28;20235;-50
2023/11/08 10:33:57;;;;;;;1.13;0.70;;;;;;;10.71;54.26;97963.72;6200120;28;20194;-49
2023/11/08 10:36:59;;;;;;;3.90;0.50;;;;;;;10.75;59.38;97988.88;6195079;28;20200;-47
2023/11/08 10:40:01;;;;;;;4.20;1.03;;;;;;;10.73;57.05;97980.28;6201340;28;20205;-50
2023/11/08 10:43:04;;;;;;;3.13;0.80;;;;;;;10.71;58.55;97986.91;6202343;28;20201;-52
2023/11/08 10:46:06;;;;;;;3.83;0.70;;;;;;;10.70;56.55;97980.78;6179765;28;20409;-51
2023/11/08 10:49:10;;;;;;;1.70;0.67;;;;;;;10.49;58.65;97955.56;6204982;28;20201;-52
2023/11/08 10:52:13;;;;;;;3.20;0.80;;;;;;;10.88;58.43;97979.78;6199717;28;20569;-52
2023/11/08 10:55:16;;;;;;;7.23;0.83;;;;;;;10.76;58.66;97987.81;6195256;28;20294;-51
2023/11/08 10:58:20;;;;;;;1.60;0.63;;;;;;;10.68;57.05;97982.03;6207888;28;20667;-50
2023/11/08 11:01:27;;;;;;;2.77;0.60;;;;;;;10.56;58.70;97966.09;6192365;28;20271;-51
2023/11/08 11:04:31;;;;;;;3.10;0.90;;;;;;;10.41;59.63;97987.06;6201832;28;20189;-51
2023/11/08 11:07:39;;;;;;;2.23;0.73;;;;;;;10.53;58.48;97982.53;6203995;28;20204;-52
2023/11/08 11:10:41;;;;;;;1.40;0.70;;;;;;;10.44;60.56;97978.59;6197431;28;20207;-50
2023/11/08 11:13:50;;;;;;;1.23;0.57;;;;;;;10.56;59.57;97984.72;6202414;28;20204;-50
2023/11/08 11:16:59;;;;;;;1.33;0.60;;;;;;;10.33;61.43;97958.91;6198571;28;20200;-52
2023/11/08 11:20:10;;;;;;;3.13;0.87;;;;;;;10.31;62.63;97951.19;6192585;28;20201;-52
2023/11/08 11:23:30;;;;;;;2.83;0.53;;;;;;;10.46;62.93;97972.00;6201799;28;20214;-52
2023/11/08 11:26:48;;;;;;;0.97;0.50;;;;;;;10.75;58.57;97972.06;6197506;28;20694;-51
2023/11/08 11:30:13;;;;;;;3.60;0.70;;;;;;;10.66;59.38;97973.47;6195435;28;20714;-50
2023/11/08 11:33:32;;;;;;;2.03;0.70;;;;;;;10.76;59.77;97979.00;6205575;28;20208;-49
2023/11/08 11:37:02;;;;;;;2.13;0.80;;;;;;;10.90;60.42;97972.38;6196094;28;20243;-53
2023/11/08 11:40:08;;;;;;;1.33;0.57;;;;;;;10.88;56.76;97960.31;6206339;28;20627;-54
2023/11/08 11:43:32;;;;;;;1.13;0.60;;;;;;;10.70;58.97;97970.13;6184200;28;20199;-52
2023/11/08 11:46:34;;;;;;;1.77;0.60;;;;;;;10.69;60.21;97965.84;6182110;28;20208;-51
2023/11/08 11:49:38;;;;;;;3.40;0.50;;;;;;;10.72;57.62;97969.88;6205440;28;20200;-50
2023/11/08 11:52:42;;;;;;;1.73;0.60;;;;;;;10.80;55.36;97962.31;6196857;28;20200;-51
2023/11/08 11:55:45;;;;;;;2.03;0.67;;;;;;;10.74;56.78;97967.78;6197080;28;20770;-50
2023/11/08 11:58:48;;;;;;;0.70;0.50;;;;;;;10.85;55.32;97964.28;6204167;28;20687;-47
2023/11/08 12:01:50;;;;;;;3.00;0.80;;;;;;;10.86;56.30;97973.88;6197928;28;20204;-49
2023/11/08 12:04:53;;;;;;;0.77;0.60;;;;;;;10.84;55.92;97966.13;6197307;28;20187;-50
2023/11/08 12:07:55;;;;;;;5.30;0.60;;;;;;;10.84;54.71;97970.66;6197445;28;20207;-48
2023/11/08 12:11:15;;;;;;;1.73;0.60;;;;;;;10.84;56.60;97978.66;6193247;28;20570;-50
2023/11/08 12:14:21;;;;;;;1.80;0.57;;;;;;;10.91;55.36;97974.00;6206790;28;20200;-51
2023/11/08 12:17:24;;;;;;;1.63;0.80;;;;;;;10.94;54.39;97986.84;6200771;28;20889;-52
2023/11/08 12:20:33;;;;;;;1.13;0.40;;;;;;;10.96;51.64;97970.63;6196592;28;20209;-50
2023/11/08 12:23:36;;;;;;;3.07;0.80;;;;;;;10.76;53.82;97953.19;6206084;28;20209;-52
2023/11/08 12:26:39;;;;;;;1.23;0.67;;;;;;;10.85;58.42;97982.94;6200359;28;20220;-50
2023/11/08 12:29:41;;;;;;;0.50;0.40;;;;;;;10.97;52.00;98001.56;6197199;28;20226;-48
2023/11/08 12:32:43;;;;;;;1.67;0.63;;;;;;;10.86;55.95;97995.22;6196520;28;20211;-52
2023/11/08 12:35:46;;;;;;;1.50;0.50;;;;;;;10.93;53.41;97997.72;6198722;28;20266;-48
2023/11/08 12:38:50;;;;;;;1.73;0.60;;;;;;;10.85;52.27;98002.41;6195994;28;20226;-49
2023/11/08 12:41:55;;;;;;;3.50;0.57;;;;;;;10.68;53.46;97985.50;6198535;28;20200;-48
2023/11/08 12:44:57;;;;;;;0.93;0.40;;;;;;;10.77;54.41;97989.44;6202153;28;20197;-49
2023/11/08 12:48:12;;;;;;;0.90;0.57;;;;;;;10.81;49.90;97990.59;6201810;28;20200;-49
2023/11/08 12:51:14;;;;;;;1.53;0.40;;;;;;;10.80;52.19;98001.50;6202057;28;21005;-51
2023/11/08 12:54:18;;;;;;;0.90;0.53;;;;;;;10.76;53.96;98003.00;6193821;28;20701;-49
2023/11/08 12:57:25;;;;;;;1.23;0.50;;;;;;;10.74;52.65;97992.59;6206916;28;20685;-48
2023/11/08 13:00:42;;;;;;;2.33;0.50;;;;;;;10.74;52.56;97987.25;6198286;28;20199;-49
2023/11/08 13:03:45;;;;;;;1.93;0.57;;;;;;;10.81;54.46;97976.44;6194187;28;20229;-51
2023/11/08 13:06:48;;;;;;;0.60;0.30;;;;;;;10.76;54.96;97974.50;6204917;28;20195;-50
2023/11/08 13:09:50;;;;;;;2.33;0.53;;;;;;;10.64;54.37;97970.22;6183596;28;20197;-51
2023/11/08 13:12:52;;;;;;;2.93;0.67;;;;;;;10.52;58.97;97980.91;6202244;28;20279;-56
2023/11/08 13:15:56;;;;;;;0.90;0.57;;;;;;;10.37;54.55;97968.06;6197398;28;20301;-54
2023/11/08 13:18:59;;;;;;;1.83;0.70;;;;;;;10.36;53.21;97977.09;6197650;28;20242;-54
2023/11/08 13:22:01;;;;;;;2.67;0.60;;;;;;;10.32;55.46;97979.41;6203429;28;20196;-52
2023/11/08 13:25:07;;;;;;;1.30;0.60;;;;;;;10.49;50.15;97968.03;6204622;28;20287;-52
2023/11/08 13:28:09;;;;;;;3.23;0.60;;;;;;;10.41;52.99;97971.09;6194245;28;20285;-50
2023/11/08 13:31:16;;;;;;;1.60;0.73;;;;;;;10.39;53.57;97973.16;6206702;28;20261;-47
2023/11/08 13:34:18;;;;;;;1.33;0.70;;;;;;;10.42;53.47;97973.50;6203630;28;20198;-52
2023/11/08 13:37:20;;;;;;;1.80;0.47;;;;;;;10.57;49.16;97981.81;6204205;28;20671;-46
2023/11/08 13:40:23;;;;;;;0.77;0.43;;;;;;;10.35;52.40;97975.50;6206966;28;20676;-51
2023/11/08 13:43:27;;;;;;;3.40;0.57;;;;;;;10.27;52.90;97979.31;6199044;28;20303;-47
2023/11/08 13:46:29;;;;;;;2.33;0.60;;;;;;;10.12;52.70;97980.78;6208243;28;20200;-47
2023/11/08 13:49:32;;;;;;;0.67;0.43;;;;;;;9.98;52.69;97975.69;6202504;28;20660;-52
2023/11/08 13:52:34;;;;;;;2.77;0.40;;;;;;;10.01;53.14;97980.56;6201600;28;20208;-48
2023/11/08 13:55:36;;;;;;;0.70;0.50;;;;;;;9.83;57.41;97976.13;6204278;28;20207;-51
2023/11/08 13:58:38;;;;;;;1.90;0.50;;;;;;;9.47;59.36;97960.34;6205355;28;20587;-53
2023/11/08 14:01:41;;;;;;;2.73;0.70;;;;;;;9.49;59.73;97980.34;6191782;28;20205;-49
2023/11/08 14:04:43;;;;;;;1.27;0.60;;;;;;;9.35;64.34;97981.56;6184211;28;20714;-53
2023/11/08 14:07:45;;;;;;;1.27;0.50;;;;;;;9.16;64.26;97982.63;6187676;28;20210;-52
2023/11/08 14:10:47;;;;;;;0.93;0.70;;;;;;;9.02;65.46;97977.53;6177741;28;20199;-55
2023/11/08 14:13:49;;;;;;;1.77;0.37;;;;;;;8.92;65.82;97990.53;6188428;28;20286;-51
2023/11/08 14:16:51;;;;;;;1.13;0.40;;;;;;;9.43;55.86;97978.59;6183687;28;20204;-52
2023/11/08 14:19:54;;;;;;;1.50;0.67;;;;;;;9.43;59.71;97975.13;6177772;28;20223;-52
2023/11/08 14:22:56;;;;;;;1.30;0.50;;;;;;;9.30;62.97;97979.56;6188785;28;20551;-53
2023/11/08 14:25:59;;;;;;;1.37;0.67;;;;;;;9.05;62.78;97965.63;6184054;28;20646;-55